Time;durP1;ratioP1;P1;durP2;ratioP2;P2;SDS_P1;SDS_P2;PMS_P1;PMS_P2;Temp;Humidity;BMP_temperature;BMP_pressure;BME280_temperature;BME280_humidity;BME280_pressure;Samples;Min_cycle;Max_cycle;Signal;HPM_P1;HPM_P2
2023/03/19 00:00:28;;;;;;;;;;;8.60;99.90;;;;;;5055221;28;19912;-70
2023/03/19 00:02:53;;;;;;;;;;;8.50;99.90;;;;;;5055370;28;19962;-69
2023/03/19 00:05:19;;;;;;;;;;;8.40;99.90;;;;;;5055138;28;20266;-69
2023/03/19 00:07:45;;;;;;;;;;;8.40;99.90;;;;;;5055396;28;19909;-70
2023/03/19 00:10:11;;;;;;;;;;;8.40;99.90;;;;;;5055331;28;19909;-70
2023/03/19 00:12:36;;;;;;;;;;;8.40;99.90;;;;;;5054028;28;20393;-69
2023/03/19 00:15:02;;;;;;;;;;;8.60;99.90;;;;;;5054727;28;19909;-70
2023/03/19 00:17:28;;;;;;;;;;;8.70;99.90;;;;;;5053994;28;19915;-70
2023/03/19 00:19:53;;;;;;;;;;;8.70;99.90;;;;;;5053776;28;19909;-70
2023/03/19 00:22:19;;;;;;;;;;;8.60;99.90;;;;;;5054020;28;19949;-70
2023/03/19 00:24:45;;;;;;;;;;;8.50;99.90;;;;;;5053893;28;19917;-70
2023/03/19 00:27:10;;;;;;;;;;;8.50;99.90;;;;;;5053758;28;19913;-70
2023/03/19 00:29:36;;;;;;;;;;;8.40;99.90;;;;;;5054051;28;19919;-70
2023/03/19 00:32:02;;;;;;;;;;;8.50;99.90;;;;;;5053445;28;19951;-70
2023/03/19 00:34:27;;;;;;;;;;;8.50;99.90;;;;;;5052269;28;19936;-70
2023/03/19 00:36:55;;;;;;;;;;;8.50;99.90;;;;;;5053767;28;19931;-70
2023/03/19 00:39:20;;;;;;;;;;;8.40;99.90;;;;;;5053205;28;20339;-70
2023/03/19 00:41:49;;;;;;;;;;;8.40;99.90;;;;;;5053090;28;19916;-70
2023/03/19 00:44:18;;;;;;;;;;;8.40;99.90;;;;;;5053933;28;19995;-70
2023/03/19 00:46:43;;;;;;;;;;;8.40;99.90;;;;;;5054252;28;20038;-70
2023/03/19 00:49:09;;;;;;;;;;;8.40;99.90;;;;;;5053813;28;19976;-70
2023/03/19 00:51:35;;;;;;;;;;;8.40;99.90;;;;;;5053491;28;19919;-70
2023/03/19 00:54:01;;;;;;;;;;;8.40;99.90;;;;;;5054669;28;19916;-70
2023/03/19 00:56:26;;;;;;;;;;;8.40;99.90;;;;;;5053947;28;20003;-70
2023/03/19 00:58:52;;;;;;;;;;;8.30;99.90;;;;;;5054040;28;19980;-70
2023/03/19 01:01:18;;;;;;;;;;;8.30;99.90;;;;;;5054265;28;19924;-70
2023/03/19 01:03:44;;;;;;;;;;;8.40;99.90;;;;;;5054247;28;19932;-70
2023/03/19 01:06:11;;;;;;;;;;;8.40;99.90;;;;;;5052898;28;20402;-75
2023/03/19 01:08:36;;;;;;;;;;;8.30;99.90;;;;;;5054103;28;19909;-69
2023/03/19 01:11:08;;;;;;;;;;;8.40;99.90;;;;;;5052760;28;19908;-70
2023/03/19 01:13:34;;;;;;;;;;;8.30;99.90;;;;;;5053938;28;19912;-69
2023/03/19 01:16:00;;;;;;;;;;;8.30;99.90;;;;;;5053988;28;19909;-69
2023/03/19 01:18:25;;;;;;;;;;;8.30;99.90;;;;;;5052591;28;19916;-69
2023/03/19 01:20:51;;;;;;;;;;;8.20;99.90;;;;;;5053737;28;19952;-69
2023/03/19 01:23:17;;;;;;;;;;;8.10;99.90;;;;;;5053994;28;19917;-70
2023/03/19 01:25:42;;;;;;;;;;;8.10;99.90;;;;;;5053740;28;19909;-69
2023/03/19 01:28:08;;;;;;;;;;;8.10;99.90;;;;;;5053502;28;19974;-69
2023/03/19 01:30:34;;;;;;;;;;;8.30;99.90;;;;;;5054082;28;19943;-69
2023/03/19 01:32:59;;;;;;;;;;;8.20;99.90;;;;;;5052285;28;20278;-69
2023/03/19 01:35:25;;;;;;;;;;;8.20;99.90;;;;;;5053500;28;19917;-69
2023/03/19 01:37:51;;;;;;;;;;;8.20;99.90;;;;;;5053743;28;19986;-69
2023/03/19 01:40:16;;;;;;;;;;;8.20;99.90;;;;;;5053265;28;20290;-69
2023/03/19 01:42:56;;;;;;;;;;;8.20;99.90;;;;;;5053303;28;19909;-72
2023/03/19 01:45:29;;;;;;;;;;;8.10;99.90;;;;;;5053095;28;19916;-69
2023/03/19 01:47:55;;;;;;;;;;;8.00;99.90;;;;;;5053414;28;20282;-71
2023/03/19 01:50:30;;;;;;;;;;;8.00;99.90;;;;;;5053422;28;19912;-70
2023/03/19 01:52:56;;;;;;;;;;;8.00;99.90;;;;;;5053376;28;19955;-70
2023/03/19 01:55:21;;;;;;;;;;;8.00;99.90;;;;;;5053161;28;19909;-70
2023/03/19 01:57:47;;;;;;;;;;;8.10;99.90;;;;;;5053199;28;19989;-69
2023/03/19 02:00:13;;;;;;;;;;;8.10;99.90;;;;;;5053000;28;19916;-69
2023/03/19 02:02:40;;;;;;;;;;;8.10;99.90;;;;;;5053128;28;19913;-69
2023/03/19 02:05:10;;;;;;;;;;;8.00;99.90;;;;;;5053165;28;19915;-70
2023/03/19 02:07:37;;;;;;;;;;;7.90;99.90;;;;;;5053134;28;19915;-70
2023/03/19 02:10:08;;;;;;;;;;;7.90;99.90;;;;;;5052100;28;19909;-70
2023/03/19 02:12:34;;;;;;;;;;;7.90;99.90;;;;;;5052856;28;19973;-70
2023/03/19 02:14:59;;;;;;;;;;;7.80;99.90;;;;;;5053054;28;20003;-70
2023/03/19 02:17:27;;;;;;;;;;;7.80;99.90;;;;;;5051606;28;20355;-69
2023/03/19 02:19:53;;;;;;;;;;;7.80;99.90;;;;;;5052991;28;20321;-69
2023/03/19 02:22:20;;;;;;;;;;;7.70;99.90;;;;;;5052142;28;19916;-70
2023/03/19 02:24:52;;;;;;;;;;;7.80;99.90;;;;;;5052753;28;19909;-70
2023/03/19 02:27:18;;;;;;;;;;;7.80;99.90;;;;;;5052502;28;20353;-70
2023/03/19 02:29:44;;;;;;;;;;;7.80;99.90;;;;;;5052032;28;20263;-70
2023/03/19 02:32:10;;;;;;;;;;;7.80;99.90;;;;;;5052866;28;19932;-70
2023/03/19 02:34:37;;;;;;;;;;;7.90;99.90;;;;;;5050999;28;19909;-69
2023/03/19 02:37:06;;;;;;;;;;;7.90;99.90;;;;;;5052681;28;19916;-70
2023/03/19 02:39:32;;;;;;;;;;;7.90;99.90;;;;;;5052874;28;19913;-69
2023/03/19 02:41:58;;;;;;;;;;;7.90;99.90;;;;;;5052429;28;20007;-69
2023/03/19 02:44:23;;;;;;;;;;;7.80;99.90;;;;;;5052438;28;19947;-70
2023/03/19 02:46:49;;;;;;;;;;;7.90;99.90;;;;;;5052839;28;19923;-69
2023/03/19 02:49:15;;;;;;;;;;;7.80;99.90;;;;;;5053067;28;19915;-70
2023/03/19 02:51:40;;;;;;;;;;;7.80;99.90;;;;;;5052171;28;20367;-70
2023/03/19 02:54:06;;;;;;;;;;;7.70;99.90;;;;;;5052612;28;20321;-70
2023/03/19 02:56:32;;;;;;;;;;;7.60;99.90;;;;;;5052567;28;19908;-70
2023/03/19 02:58:58;;;;;;;;;;;7.60;99.90;;;;;;5052966;28;19940;-70
2023/03/19 03:01:23;;;;;;;;;;;7.60;99.90;;;;;;5052279;28;19908;-69
2023/03/19 03:03:49;;;;;;;;;;;7.60;99.90;;;;;;5052320;28;19909;-70
2023/03/19 03:06:16;;;;;;;;;;;7.60;99.90;;;;;;5052746;28;19909;-70
2023/03/19 03:08:42;;;;;;;;;;;7.60;99.90;;;;;;5052380;28;20047;-70
2023/03/19 03:11:08;;;;;;;;;;;7.60;99.90;;;;;;5052013;28;20358;-70
2023/03/19 03:13:34;;;;;;;;;;;7.60;99.90;;;;;;5052176;28;19913;-70
2023/03/19 03:16:00;;;;;;;;;;;7.60;99.90;;;;;;5052801;28;19913;-70
2023/03/19 03:18:26;;;;;;;;;;;7.60;99.90;;;;;;5051138;28;19916;-70
2023/03/19 03:20:52;;;;;;;;;;;7.70;99.90;;;;;;5052250;28;19916;-70
2023/03/19 03:23:18;;;;;;;;;;;7.70;99.90;;;;;;5052056;28;19966;-70
2023/03/19 03:25:47;;;;;;;;;;;7.70;99.90;;;;;;5052497;28;20269;-72
2023/03/19 03:28:12;;;;;;;;;;;7.60;99.90;;;;;;5052432;28;19908;-70
2023/03/19 03:30:38;;;;;;;;;;;7.70;99.90;;;;;;5051703;28;19916;-70
2023/03/19 03:33:04;;;;;;;;;;;7.60;99.90;;;;;;5053417;28;20355;-70
2023/03/19 03:35:30;;;;;;;;;;;7.60;99.90;;;;;;5055588;28;19919;-70
2023/03/19 03:37:56;;;;;;;;;;;7.50;99.90;;;;;;5055882;28;19956;-70
2023/03/19 03:40:22;;;;;;;;;;;7.50;99.90;;;;;;5055854;28;20399;-70
2023/03/19 03:42:48;;;;;;;;;;;7.50;99.90;;;;;;5055878;28;19955;-70
2023/03/19 03:45:14;;;;;;;;;;;7.50;99.90;;;;;;5054179;28;19909;-69
2023/03/19 03:47:41;;;;;;;;;;;7.50;99.90;;;;;;5055999;28;19908;-70
2023/03/19 03:50:09;;;;;;;;;;;7.40;99.90;;;;;;5055688;28;19909;-70
2023/03/19 03:52:35;;;;;;;;;;;7.40;99.90;;;;;;5055297;28;19913;-69
2023/03/19 03:55:01;;;;;;;;;;;7.40;99.90;;;;;;5055723;28;19913;-70
2023/03/19 03:57:27;;;;;;;;;;;7.30;99.90;;;;;;5055619;28;19916;-72
2023/03/19 03:59:53;;;;;;;;;;;7.40;99.90;;;;;;5055425;28;19920;-69
2023/03/19 04:02:18;;;;;;;;;;;7.60;99.90;;;;;;5054363;28;20068;-70
2023/03/19 04:04:44;;;;;;;;;;;7.80;99.90;;;;;;5055443;28;19916;-69
2023/03/19 04:07:10;;;;;;;;;;;7.90;99.90;;;;;;5054690;28;19924;-69
2023/03/19 04:09:35;;;;;;;;;;;8.00;99.90;;;;;;5055705;28;19954;-69
2023/03/19 04:12:01;;;;;;;;;;;7.90;99.90;;;;;;5055303;28;19909;-69
2023/03/19 04:14:27;;;;;;;;;;;8.00;99.90;;;;;;5055046;28;19963;-69
2023/03/19 04:16:53;;;;;;;;;;;7.90;99.90;;;;;;5055529;28;19917;-69
2023/03/19 04:19:19;;;;;;;;;;;8.00;99.90;;;;;;5055004;28;19944;-70
2023/03/19 04:21:45;;;;;;;;;;;8.00;99.90;;;;;;5054880;28;19917;-70
2023/03/19 04:24:11;;;;;;;;;;;8.00;99.90;;;;;;5053351;28;20332;-70
2023/03/19 04:26:39;;;;;;;;;;;7.80;99.90;;;;;;5054460;28;20305;-70
2023/03/19 04:29:05;;;;;;;;;;;7.90;99.90;;;;;;5055044;28;20290;-72
2023/03/19 04:31:30;;;;;;;;;;;7.90;99.90;;;;;;5054952;28;20238;-70
2023/03/19 04:33:57;;;;;;;;;;;7.90;99.90;;;;;;5054605;28;19996;-74
2023/03/19 04:36:23;;;;;;;;;;;7.90;99.90;;;;;;5054685;28;20317;-73
2023/03/19 04:38:48;;;;;;;;;;;7.90;99.90;;;;;;5054657;28;19935;-70
2023/03/19 04:41:17;;;;;;;;;;;7.90;99.90;;;;;;5054467;28;20429;-70
2023/03/19 04:43:42;;;;;;;;;;;7.90;99.90;;;;;;5053385;28;19912;-70
2023/03/19 04:46:08;;;;;;;;;;;7.80;99.90;;;;;;5054185;28;20429;-70
2023/03/19 04:48:34;;;;;;;;;;;7.80;99.90;;;;;;5054812;28;20358;-72
2023/03/19 04:51:01;;;;;;;;;;;7.80;99.90;;;;;;5054200;28;19909;-71
2023/03/19 04:53:27;;;;;;;;;;;7.80;99.90;;;;;;5054639;28;20067;-70
2023/03/19 04:55:53;;;;;;;;;;;7.70;99.90;;;;;;5054316;28;19950;-70
2023/03/19 04:58:19;;;;;;;;;;;7.80;99.90;;;;;;5054351;28;19909;-69
2023/03/19 05:00:46;;;;;;;;;;;7.90;99.90;;;;;;5053727;28;19909;-71
2023/03/19 05:03:12;;;;;;;;;;;7.90;99.90;;;;;;5052453;28;19913;-70
2023/03/19 05:05:38;;;;;;;;;;;7.80;99.90;;;;;;5054133;28;19970;-71
2023/03/19 05:08:04;;;;;;;;;;;7.80;99.90;;;;;;5054376;28;20235;-69
2023/03/19 05:10:31;;;;;;;;;;;7.70;99.90;;;;;;5054115;28;19915;-72
2023/03/19 05:12:56;;;;;;;;;;;7.60;99.90;;;;;;5054159;28;20367;-70
2023/03/19 05:15:22;;;;;;;;;;;7.60;99.90;;;;;;5053958;28;19936;-70
2023/03/19 05:17:48;;;;;;;;;;;7.60;99.90;;;;;;5054048;28;20371;-72
2023/03/19 05:20:14;;;;;;;;;;;7.60;99.90;;;;;;5053702;28;19987;-70
2023/03/19 05:22:40;;;;;;;;;;;7.60;99.90;;;;;;5052229;28;19983;-70
2023/03/19 05:25:06;;;;;;;;;;;7.60;99.90;;;;;;5053875;28;19915;-69
2023/03/19 05:27:32;;;;;;;;;;;7.60;99.90;;;;;;5053752;28;20286;-70
2023/03/19 05:29:57;;;;;;;;;;;7.60;99.90;;;;;;5053199;28;20448;-69
2023/03/19 05:32:24;;;;;;;;;;;7.70;99.90;;;;;;5053726;28;19932;-71
2023/03/19 05:34:49;;;;;;;;;;;7.60;99.90;;;;;;5054006;28;19931;-70
2023/03/19 05:37:15;;;;;;;;;;;7.60;99.90;;;;;;5053632;28;19908;-69
2023/03/19 05:39:41;;;;;;;;;;;7.70;99.90;;;;;;5051732;28;20000;-71
2023/03/19 05:42:07;;;;;;;;;;;7.70;99.90;;;;;;5053409;28;19978;-70
2023/03/19 05:44:33;;;;;;;;;;;7.80;99.90;;;;;;5053840;28;19913;-70
2023/03/19 05:46:58;;;;;;;;;;;7.90;99.90;;;;;;5053316;28;19915;-70
2023/03/19 05:49:24;;;;;;;;;;;8.00;99.90;;;;;;5053202;28;20346;-71
2023/03/19 05:51:50;;;;;;;;;;;8.10;99.90;;;;;;5053668;28;20291;-70
2023/03/19 05:54:16;;;;;;;;;;;8.20;99.90;;;;;;5053163;28;19912;-70
2023/03/19 05:56:42;;;;;;;;;;;8.20;99.90;;;;;;5052828;28;19948;-70
2023/03/19 05:59:07;;;;;;;;;;;8.20;99.90;;;;;;5053455;28;20254;-70
2023/03/19 06:01:33;;;;;;;;;;;8.20;99.90;;;;;;5053204;28;19920;-75
2023/03/19 06:03:59;;;;;;;;;;;8.30;99.90;;;;;;5052915;28;19909;-70
2023/03/19 06:06:25;;;;;;;;;;;8.30;99.90;;;;;;5052775;28;19923;-71
2023/03/19 06:08:52;;;;;;;;;;;8.20;99.90;;;;;;5052940;28;19935;-70
2023/03/19 06:11:17;;;;;;;;;;;8.20;99.90;;;;;;5052639;28;19923;-70
2023/03/19 06:13:43;;;;;;;;;;;8.10;99.90;;;;;;5053472;28;20007;-70
2023/03/19 06:16:09;;;;;;;;;;;8.20;99.90;;;;;;5052825;28;19912;-70
2023/03/19 06:18:35;;;;;;;;;;;8.30;99.90;;;;;;5052807;28;20333;-73
2023/03/19 06:21:01;;;;;;;;;;;8.40;99.90;;;;;;5052887;28;19920;-70
2023/03/19 06:23:26;;;;;;;;;;;8.50;99.90;;;;;;5052967;28;20291;-69
2023/03/19 06:25:52;;;;;;;;;;;8.70;99.90;;;;;;5052558;28;20366;-71
2023/03/19 06:28:18;;;;;;;;;;;8.80;99.90;;;;;;5052836;28;20397;-70
2023/03/19 06:30:44;;;;;;;;;;;8.90;99.90;;;;;;5052516;28;20358;-72
2023/03/19 06:33:09;;;;;;;;;;;8.80;99.90;;;;;;5052461;28;20033;-70
2023/03/19 06:35:35;;;;;;;;;;;8.90;99.90;;;;;;5052881;28;20016;-70
2023/03/19 06:38:01;;;;;;;;;;;8.80;99.90;;;;;;5052975;28;20050;-69
2023/03/19 06:40:27;;;;;;;;;;;8.80;99.90;;;;;;5052762;28;19912;-70
2023/03/19 06:42:52;;;;;;;;;;;8.90;99.90;;;;;;5052730;28;19916;-70
2023/03/19 06:45:18;;;;;;;;;;;8.90;99.90;;;;;;5052686;28;19909;-70
2023/03/19 06:47:45;;;;;;;;;;;9.00;99.90;;;;;;5052613;28;19913;-70
2023/03/19 06:50:11;;;;;;;;;;;9.10;99.90;;;;;;5052654;28;19912;-70
2023/03/19 06:52:37;;;;;;;;;;;9.10;99.90;;;;;;5051522;28;19919;-70
2023/03/19 06:55:04;;;;;;;;;;;9.20;99.90;;;;;;5052761;28;19913;-71
2023/03/19 06:57:29;;;;;;;;;;;9.20;99.90;;;;;;5052917;28;19909;-70
2023/03/19 06:59:55;;;;;;;;;;;9.10;99.90;;;;;;5052665;28;19963;-70
2023/03/19 07:02:22;;;;;;;;;;;9.10;99.90;;;;;;5052460;28;20306;-70
2023/03/19 07:04:47;;;;;;;;;;;9.10;99.90;;;;;;5052682;28;20030;-70
2023/03/19 07:07:13;;;;;;;;;;;9.20;99.90;;;;;;5052676;28;19916;-71
2023/03/19 07:09:39;;;;;;;;;;;9.20;99.90;;;;;;5056055;28;19908;-73
2023/03/19 07:12:05;;;;;;;;;;;9.40;99.90;;;;;;5056277;28;20231;-72
2023/03/19 07:14:30;;;;;;;;;;;9.40;99.90;;;;;;5056460;28;19921;-69
2023/03/19 07:16:56;;;;;;;;;;;9.60;99.90;;;;;;5056416;28;19916;-70
2023/03/19 07:19:22;;;;;;;;;;;9.70;99.90;;;;;;5056204;28;19909;-69
2023/03/19 07:21:47;;;;;;;;;;;9.90;99.90;;;;;;5055961;28;20327;-69
2023/03/19 07:24:13;;;;;;;;;;;10.00;99.90;;;;;;5055818;28;19931;-70
2023/03/19 07:26:39;;;;;;;;;;;10.00;99.90;;;;;;5056214;28;20322;-70
2023/03/19 07:29:05;;;;;;;;;;;10.00;99.90;;;;;;5056114;28;19915;-70
2023/03/19 07:31:30;;;;;;;;;;;10.10;99.90;;;;;;5056409;28;19913;-70
2023/03/19 07:33:56;;;;;;;;;;;10.10;99.90;;;;;;5055964;28;19961;-70
2023/03/19 07:36:22;;;;;;;;;;;10.20;99.90;;;;;;5055816;28;19940;-70
2023/03/19 07:38:48;;;;;;;;;;;10.30;99.90;;;;;;5055655;28;19909;-70
2023/03/19 07:41:14;;;;;;;;;;;10.40;99.90;;;;;;5055533;28;20385;-70
2023/03/19 07:43:40;;;;;;;;;;;10.50;99.90;;;;;;5055586;28;19908;-70
2023/03/19 07:46:06;;;;;;;;;;;10.70;99.90;;;;;;5055870;28;19905;-70
2023/03/19 07:48:32;;;;;;;;;;;10.70;99.90;;;;;;5055591;28;19908;-73
2023/03/19 07:50:58;;;;;;;;;;;10.80;99.90;;;;;;5055223;28;19939;-70
2023/03/19 07:53:23;;;;;;;;;;;10.90;99.90;;;;;;5054228;28;19919;-70
2023/03/19 07:55:49;;;;;;;;;;;10.90;99.90;;;;;;5055418;28;19913;-70
2023/03/19 07:58:15;;;;;;;;;;;11.00;99.90;;;;;;5055612;28;19935;-70
2023/03/19 08:00:41;;;;;;;;;;;11.10;99.90;;;;;;5055055;28;20350;-70
2023/03/19 08:03:07;;;;;;;;;;;11.20;99.90;;;;;;5055400;28;19915;-70
2023/03/19 08:05:33;;;;;;;;;;;11.20;99.90;;;;;;5055149;28;19941;-70
2023/03/19 08:07:59;;;;;;;;;;;11.30;99.90;;;;;;5055352;28;20301;-70
2023/03/19 08:10:24;;;;;;;;;;;11.50;99.90;;;;;;5055279;28;19908;-73
2023/03/19 08:12:50;;;;;;;;;;;11.60;99.90;;;;;;5053620;28;19924;-70
2023/03/19 08:15:15;;;;;;;;;;;11.60;99.90;;;;;;5054942;28;19913;-71
2023/03/19 08:17:41;;;;;;;;;;;11.60;99.90;;;;;;5055142;28;20260;-71
2023/03/19 08:20:08;;;;;;;;;;;11.60;99.90;;;;;;5054539;28;19916;-70
2023/03/19 08:22:34;;;;;;;;;;;11.70;99.90;;;;;;5054940;28;20066;-70
2023/03/19 08:25:00;;;;;;;;;;;11.70;99.90;;;;;;5054701;28;19912;-70
2023/03/19 08:27:27;;;;;;;;;;;11.80;99.90;;;;;;5054994;28;20185;-71
2023/03/19 08:29:52;;;;;;;;;;;11.90;99.90;;;;;;5054490;28;19996;-70
2023/03/19 08:32:18;;;;;;;;;;;12.00;99.90;;;;;;5054828;28;19943;-70
2023/03/19 08:34:44;;;;;;;;;;;12.00;99.90;;;;;;5055075;28;19917;-75
2023/03/19 08:37:10;;;;;;;;;;;12.00;99.90;;;;;;5054915;28;20083;-71
2023/03/19 08:39:35;;;;;;;;;;;12.00;99.90;;;;;;5054512;28;20003;-71
2023/03/19 08:42:01;;;;;;;;;;;12.00;99.90;;;;;;5054104;28;19991;-70
2023/03/19 08:44:27;;;;;;;;;;;12.10;99.90;;;;;;5054747;28;19909;-70
2023/03/19 08:46:53;;;;;;;;;;;12.00;99.90;;;;;;5053381;28;20390;-70
2023/03/19 08:49:18;;;;;;;;;;;12.10;99.90;;;;;;5054719;28;20359;-73
2023/03/19 08:51:44;;;;;;;;;;;12.10;99.90;;;;;;5053926;28;19920;-70
2023/03/19 08:54:10;;;;;;;;;;;12.10;99.90;;;;;;5054110;28;19936;-71
2023/03/19 08:56:37;;;;;;;;;;;12.10;99.90;;;;;;5054070;28;19912;-70
2023/03/19 08:59:02;;;;;;;;;;;12.10;99.90;;;;;;5054226;28;19964;-70
2023/03/19 09:01:28;;;;;;;;;;;12.10;99.90;;;;;;5054181;28;19909;-70
2023/03/19 09:03:54;;;;;;;;;;;12.10;99.90;;;;;;5053513;28;19979;-71
2023/03/19 09:06:20;;;;;;;;;;;12.10;99.90;;;;;;5054825;28;19914;-71
2023/03/19 09:08:45;;;;;;;;;;;12.20;99.90;;;;;;5053929;28;19908;-71
2023/03/19 09:11:13;;;;;;;;;;;12.20;99.90;;;;;;5053717;28;19913;-70
2023/03/19 09:13:39;;;;;;;;;;;12.20;99.90;;;;;;5053989;28;19974;-70
2023/03/19 09:16:05;;;;;;;;;;;12.30;99.90;;;;;;5054152;28;19909;-71
2023/03/19 09:18:31;;;;;;;;;;;12.20;99.90;;;;;;5054043;28;20274;-71
2023/03/19 09:20:57;;;;;;;;;;;12.40;99.90;;;;;;5054024;28;19962;-71
2023/03/19 09:23:22;;;;;;;;;;;12.40;99.90;;;;;;5054090;28;19917;-73
2023/03/19 09:25:48;;;;;;;;;;;12.50;99.90;;;;;;5053954;28;19923;-70
2023/03/19 09:28:14;;;;;;;;;;;12.40;99.90;;;;;;5053759;28;19909;-71
2023/03/19 09:30:40;;;;;;;;;;;12.50;99.90;;;;;;5052641;28;19909;-71
2023/03/19 09:33:06;;;;;;;;;;;12.50;99.90;;;;;;5054272;28;19967;-70
2023/03/19 09:35:32;;;;;;;;;;;12.60;99.90;;;;;;5053729;28;19975;-72
2023/03/19 09:37:58;;;;;;;;;;;12.60;99.90;;;;;;5053794;28;19976;-71
2023/03/19 09:40:32;;;;;;;;;;;12.80;99.90;;;;;;5053410;28;19909;-71
2023/03/19 09:43:16;;;;;;;;;;;12.80;99.90;;;;;;5053477;28;19908;-71
2023/03/19 09:45:43;;;;;;;;;;;12.90;99.90;;;;;;5053498;28;19999;-75
2023/03/19 09:48:13;;;;;;;;;;;13.00;99.90;;;;;;5053229;28;19915;-70
2023/03/19 09:50:39;;;;;;;;;;;13.10;99.90;;;;;;5053319;28;19971;-70
2023/03/19 09:53:16;;;;;;;;;;;13.10;99.90;;;;;;5053792;28;20359;-70
2023/03/19 09:55:42;;;;;;;;;;;13.10;99.90;;;;;;5053517;28;19909;-70
2023/03/19 09:58:17;;;;;;;;;;;13.00;99.90;;;;;;5053553;28;20283;-70
2023/03/19 10:00:45;;;;;;;;;;;13.00;99.90;;;;;;5052833;28;20350;-71
2023/03/19 10:03:27;;;;;;;;;;;13.00;99.90;;;;;;5052679;28;19912;-71
2023/03/19 10:06:00;;;;;;;;;;;13.10;99.90;;;;;;5053063;28;19916;-70
2023/03/19 10:08:26;;;;;;;;;;;13.20;99.90;;;;;;5052517;28;20329;-71
2023/03/19 10:10:55;;;;;;;;;;;13.10;99.90;;;;;;5050731;28;19991;-70
2023/03/19 10:13:36;;;;;;;;;;;13.30;99.90;;;;;;5052697;28;19917;-72
2023/03/19 10:16:03;;;;;;;;;;;13.20;99.90;;;;;;5053108;28;19908;-71
2023/03/19 10:18:31;;;;;;;;;;;13.20;99.90;;;;;;5053109;28;19909;-71
2023/03/19 10:20:57;;;;;;;;;;;13.10;99.90;;;;;;5052604;28;19971;-70
2023/03/19 10:23:36;;;;;;;;;;;13.20;99.90;;;;;;5052445;28;19920;-70
2023/03/19 10:26:04;;;;;;;;;;;13.10;99.90;;;;;;5051951;28;19909;-70
2023/03/19 10:28:30;;;;;;;;;;;13.10;99.90;;;;;;5052193;28;20008;-71
2023/03/19 10:31:06;;;;;;;;;;;13.10;99.90;;;;;;5051736;28;19909;-75
2023/03/19 10:33:36;;;;;;;;;;;13.10;99.90;;;;;;5052062;28;19921;-70
2023/03/19 10:36:08;;;;;;;;;;;13.10;99.90;;;;;;5052443;28;19909;-71
2023/03/19 10:38:38;;;;;;;;;;;13.10;99.90;;;;;;5052920;28;19932;-71
2023/03/19 10:41:09;;;;;;;;;;;13.10;99.90;;;;;;5051832;28;19971;-74
2023/03/19 10:43:35;;;;;;;;;;;13.10;99.90;;;;;;5056325;28;19909;-71
2023/03/19 10:46:01;;;;;;;;;;;13.10;99.90;;;;;;5056856;28;19912;-71
2023/03/19 10:48:28;;;;;;;;;;;13.20;99.90;;;;;;5056747;28;19963;-71
2023/03/19 10:50:58;;;;;;;;;;;13.10;99.90;;;;;;5056054;28;20055;-70
2023/03/19 10:53:24;;;;;;;;;;;13.10;99.90;;;;;;5055832;28;20341;-71
2023/03/19 10:55:52;;;;;;;;;;;13.10;99.90;;;;;;5056863;28;20071;-71
2023/03/19 10:58:19;;;;;;;;;;;13.10;99.90;;;;;;5056022;28;19908;-70
2023/03/19 11:00:45;;;;;;;;;;;13.10;99.90;;;;;;5056112;28;19916;-71
2023/03/19 11:03:30;;;;;;;;;;;13.10;99.90;;;;;;5057087;28;19920;-71
2023/03/19 11:06:22;;;;;;;;;;;13.10;99.90;;;;;;5056126;28;19967;-71
2023/03/19 11:08:58;;;;;;;;;;;13.10;99.90;;;;;;5055135;28;20355;-70
2023/03/19 11:11:33;;;;;;;;;;;13.20;99.90;;;;;;5055544;28;19943;-71
2023/03/19 11:14:04;;;;;;;;;;;13.10;99.90;;;;;;5054249;28;19920;-71
2023/03/19 11:16:32;;;;;;;;;;;13.20;99.90;;;;;;5054309;28;19932;-71
2023/03/19 11:18:57;;;;;;;;;;;13.30;99.90;;;;;;5053188;28;19909;-71
2023/03/19 11:21:29;;;;;;;;;;;13.40;99.90;;;;;;5053901;28;19931;-71
2023/03/19 11:24:00;;;;;;;;;;;13.40;99.90;;;;;;5054082;28;20298;-71
2023/03/19 11:26:27;;;;;;;;;;;13.30;99.90;;;;;;5053974;28;19909;-71
2023/03/19 11:28:56;;;;;;;;;;;13.30;99.90;;;;;;5054186;28;20019;-71
2023/03/19 11:31:22;;;;;;;;;;;13.30;99.90;;;;;;5053596;28;20282;-71
2023/03/19 11:34:06;;;;;;;;;;;13.40;99.90;;;;;;5053756;28;19912;-71
2023/03/19 11:36:38;;;;;;;;;;;13.30;99.90;;;;;;5053959;28;19941;-71
2023/03/19 11:39:09;;;;;;;;;;;13.30;99.90;;;;;;5053993;28;19928;-71
2023/03/19 11:41:47;;;;;;;;;;;13.40;99.90;;;;;;5053551;28;19908;-70
2023/03/19 11:44:42;;;;;;;;;;;13.40;99.90;;;;;;5053925;28;19915;-72
2023/03/19 11:47:23;;;;;;;;;;;13.50;99.90;;;;;;5051767;28;19916;-71
2023/03/19 11:49:52;;;;;;;;;;;13.60;99.90;;;;;;5055445;28;19916;-71
2023/03/19 11:52:29;;;;;;;;;;;13.50;99.90;;;;;;5054680;28;19998;-71
2023/03/19 11:54:55;;;;;;;;;;;13.60;99.90;;;;;;5054637;28;20336;-71
2023/03/19 11:57:20;;;;;;;;;;;13.60;99.90;;;;;;5055311;28;19912;-71
2023/03/19 11:59:46;;;;;;;;;;;13.60;99.90;;;;;;5054975;28;19954;-70
2023/03/19 12:02:12;;;;;;;;;;;13.70;99.90;;;;;;5055398;28;19908;-71
2023/03/19 12:04:52;;;;;;;;;;;13.80;99.90;;;;;;5055482;28;19912;-71
2023/03/19 12:07:25;;;;;;;;;;;13.80;99.90;;;;;;5055333;28;19913;-72
2023/03/19 12:09:57;;;;;;;;;;;13.80;99.90;;;;;;5055162;28;19916;-71
2023/03/19 12:12:32;;;;;;;;;;;13.80;99.90;;;;;;5054817;28;19968;-71
2023/03/19 12:15:09;;;;;;;;;;;13.70;99.90;;;;;;5055206;28;19913;-71
2023/03/19 12:17:55;;;;;;;;;;;13.80;99.90;;;;;;5054601;28;19909;-71
2023/03/19 12:20:20;;;;;;;;;;;13.80;99.90;;;;;;5052970;28;19917;-71
2023/03/19 12:22:49;;;;;;;;;;;13.90;99.90;;;;;;5055184;28;19913;-71
2023/03/19 12:25:18;;;;;;;;;;;13.90;99.90;;;;;;5055077;28;19912;-71
2023/03/19 12:28:02;;;;;;;;;;;14.00;99.90;;;;;;5054998;28;19913;-71
2023/03/19 12:30:43;;;;;;;;;;;13.90;99.90;;;;;;5054706;28;19913;-71
2023/03/19 12:33:34;;;;;;;;;;;13.80;99.90;;;;;;5055009;28;20046;-71
2023/03/19 12:36:01;;;;;;;;;;;13.80;99.90;;;;;;5053635;28;19909;-70
2023/03/19 12:38:40;;;;;;;;;;;14.00;99.90;;;;;;5054697;28;20007;-71
2023/03/19 12:41:10;;;;;;;;;;;14.10;99.90;;;;;;5054774;28;20016;-71
2023/03/19 12:43:38;;;;;;;;;;;14.10;99.90;;;;;;5054396;28;20050;-71
2023/03/19 12:46:07;;;;;;;;;;;14.10;99.90;;;;;;5054937;28;19915;-72
2023/03/19 12:48:59;;;;;;;;;;;14.10;99.90;;;;;;5055067;28;19909;-71
2023/03/19 12:51:27;;;;;;;;;;;14.10;99.90;;;;;;5052820;28;19923;-71
2023/03/19 12:54:09;;;;;;;;;;;14.10;99.90;;;;;;5054265;28;19920;-71
2023/03/19 12:56:40;;;;;;;;;;;14.10;99.90;;;;;;5054800;28;20085;-71
2023/03/19 12:59:19;;;;;;;;;;;14.00;99.90;;;;;;5054651;28;19908;-72
2023/03/19 13:01:50;;;;;;;;;;;14.00;99.90;;;;;;5053433;28;20045;-71
2023/03/19 13:04:21;;;;;;;;;;;14.10;99.90;;;;;;5054199;28;20367;-72
2023/03/19 13:06:57;;;;;;;;;;;14.20;99.90;;;;;;5052970;28;19915;-71
2023/03/19 13:09:33;;;;;;;;;;;14.20;99.90;;;;;;5054385;28;20294;-71
2023/03/19 13:11:58;;;;;;;;;;;14.10;99.90;;;;;;5053382;28;20070;-71
2023/03/19 13:14:28;;;;;;;;;;;14.20;99.90;;;;;;5052287;28;19923;-71
2023/03/19 13:16:58;;;;;;;;;;;14.20;99.90;;;;;;5053539;28;19909;-71
2023/03/19 13:19:30;;;;;;;;;;;14.20;99.90;;;;;;5053626;28;19959;-71
2023/03/19 13:22:02;;;;;;;;;;;14.20;99.90;;;;;;5053874;28;19958;-71
2023/03/19 13:24:33;;;;;;;;;;;14.30;99.90;;;;;;5053271;28;19939;-72
2023/03/19 13:27:00;;;;;;;;;;;14.30;99.90;;;;;;5053401;28;19940;-72
2023/03/19 13:29:33;;;;;;;;;;;14.30;99.90;;;;;;5053680;28;19908;-71
2023/03/19 13:32:19;;;;;;;;;;;14.40;99.90;;;;;;5053431;28;19915;-71
2023/03/19 13:34:45;;;;;;;;;;;14.40;99.90;;;;;;5053348;28;19923;-71
2023/03/19 13:37:11;;;;;;;;;;;14.40;99.90;;;;;;5052118;28;19917;-71
2023/03/19 13:39:37;;;;;;;;;;;14.30;99.90;;;;;;5054051;28;19920;-71
2023/03/19 13:42:06;;;;;;;;;;;14.40;99.90;;;;;;5052930;28;20395;-71
2023/03/19 13:44:33;;;;;;;;;;;14.40;99.90;;;;;;5053402;28;19916;-71
2023/03/19 13:47:00;;;;;;;;;;;14.30;99.90;;;;;;5053550;28;19909;-71
2023/03/19 13:49:34;;;;;;;;;;;14.30;99.90;;;;;;5053332;28;19916;-71
2023/03/19 13:52:02;;;;;;;;;;;14.20;99.90;;;;;;5052830;28;19908;-71
2023/03/19 13:54:35;;;;;;;;;;;14.30;99.90;;;;;;5052974;28;19999;-71
2023/03/19 13:57:12;;;;;;;;;;;14.30;99.90;;;;;;5053396;28;20060;-71
2023/03/19 13:59:42;;;;;;;;;;;14.30;99.90;;;;;;5053308;28;20282;-71
2023/03/19 14:02:20;;;;;;;;;;;14.30;99.90;;;;;;5052762;28;19913;-71
2023/03/19 14:05:02;;;;;;;;;;;14.20;99.90;;;;;;5053082;28;19948;-71
2023/03/19 14:07:39;;;;;;;;;;;14.20;99.90;;;;;;5052739;28;20021;-73
2023/03/19 14:10:07;;;;;;;;;;;14.20;99.90;;;;;;5052656;28;19908;-71
2023/03/19 14:12:34;;;;;;;;;;;14.10;99.90;;;;;;5052388;28;19958;-71
2023/03/19 14:15:14;;;;;;;;;;;14.10;99.90;;;;;;5052960;28;19916;-71
2023/03/19 14:17:43;;;;;;;;;;;14.10;99.90;;;;;;5052251;28;20003;-72
2023/03/19 14:20:09;;;;;;;;;;;14.10;99.90;;;;;;5051282;28;19908;-71
2023/03/19 14:22:39;;;;;;;;;;;14.10;99.90;;;;;;5052368;28;19924;-71
2023/03/19 14:25:10;;;;;;;;;;;14.00;99.90;;;;;;5051881;28;19909;-71
2023/03/19 14:27:37;;;;;;;;;;;14.00;99.90;;;;;;5051859;28;19948;-71